sensor_id;sensor_type;location;lat;lon;timestamp;P1;durP1;ratioP1;P2;durP2;ratioP2
10050;SDS011;5065;46.942;7.432;2022-12-18T00:01:14;33.30;;;18.87;;
10050;SDS011;5065;46.942;7.432;2022-12-18T00:03:43;32.37;;;18.70;;
10050;SDS011;5065;46.942;7.432;2022-12-18T00:06:10;34.23;;;19.27;;
10050;SDS011;5065;46.942;7.432;2022-12-18T00:08:39;32.83;;;18.63;;
10050;SDS011;5065;46.942;7.432;2022-12-18T00:11:06;32.37;;;19.50;;
10050;SDS011;5065;46.942;7.432;2022-12-18T00:13:36;32.70;;;18.03;;
10050;SDS011;5065;46.942;7.432;2022-12-18T00:16:05;36.87;;;18.93;;
10050;SDS011;5065;46.942;7.432;2022-12-18T00:18:33;33.17;;;18.53;;
10050;SDS011;5065;46.942;7.432;2022-12-18T00:21:02;34.40;;;18.60;;
10050;SDS011;5065;46.942;7.432;2022-12-18T00:23:31;33.10;;;18.37;;
10050;SDS011;5065;46.942;7.432;2022-12-18T00:25:59;31.90;;;19.13;;
10050;SDS011;5065;46.942;7.432;2022-12-18T00:28:27;34.50;;;19.60;;
10050;SDS011;5065;46.942;7.432;2022-12-18T00:31:00;33.13;;;18.83;;
10050;SDS011;5065;46.942;7.432;2022-12-18T00:33:28;36.03;;;19.30;;
10050;SDS011;5065;46.942;7.432;2022-12-18T00:35:59;36.57;;;19.30;;
10050;SDS011;5065;46.942;7.432;2022-12-18T00:38:27;31.70;;;18.13;;
10050;SDS011;5065;46.942;7.432;2022-12-18T00:40:54;33.67;;;19.30;;
10050;SDS011;5065;46.942;7.432;2022-12-18T00:43:21;35.80;;;20.50;;
10050;SDS011;5065;46.942;7.432;2022-12-18T00:45:48;33.57;;;19.03;;
10050;SDS011;5065;46.942;7.432;2022-12-18T00:48:16;33.73;;;18.23;;
10050;SDS011;5065;46.942;7.432;2022-12-18T00:50:44;34.70;;;19.30;;
10050;SDS011;5065;46.942;7.432;2022-12-18T00:53:11;29.97;;;19.63;;
10050;SDS011;5065;46.942;7.432;2022-12-18T00:55:38;33.10;;;19.20;;
10050;SDS011;5065;46.942;7.432;2022-12-18T00:58:06;39.87;;;20.73;;
10050;SDS011;5065;46.942;7.432;2022-12-18T01:00:34;34.47;;;18.77;;
10050;SDS011;5065;46.942;7.432;2022-12-18T01:03:01;33.03;;;19.87;;
10050;SDS011;5065;46.942;7.432;2022-12-18T01:05:30;34.83;;;18.40;;
10050;SDS011;5065;46.942;7.432;2022-12-18T01:07:57;37.97;;;20.77;;
10050;SDS011;5065;46.942;7.432;2022-12-18T01:10:25;33.10;;;18.63;;
10050;SDS011;5065;46.942;7.432;2022-12-18T01:12:52;39.63;;;21.07;;
10050;SDS011;5065;46.942;7.432;2022-12-18T01:15:19;34.50;;;18.20;;
10050;SDS011;5065;46.942;7.432;2022-12-18T01:17:47;36.70;;;19.10;;
10050;SDS011;5065;46.942;7.432;2022-12-18T01:20:14;31.60;;;18.87;;
10050;SDS011;5065;46.942;7.432;2022-12-18T01:22:42;35.73;;;18.03;;
10050;SDS011;5065;46.942;7.432;2022-12-18T01:25:09;33.27;;;18.57;;
10050;SDS011;5065;46.942;7.432;2022-12-18T01:27:36;34.47;;;19.07;;
10050;SDS011;5065;46.942;7.432;2022-12-18T01:30:04;32.77;;;19.17;;
10050;SDS011;5065;46.942;7.432;2022-12-18T01:32:32;33.23;;;19.43;;
10050;SDS011;5065;46.942;7.432;2022-12-18T01:34:59;36.30;;;19.57;;
10050;SDS011;5065;46.942;7.432;2022-12-18T01:37:26;36.23;;;19.30;;
10050;SDS011;5065;46.942;7.432;2022-12-18T01:39:55;31.10;;;17.70;;
10050;SDS011;5065;46.942;7.432;2022-12-18T01:42:22;37.70;;;19.07;;
10050;SDS011;5065;46.942;7.432;2022-12-18T01:44:53;36.37;;;20.00;;
10050;SDS011;5065;46.942;7.432;2022-12-18T01:47:26;39.10;;;20.53;;
10050;SDS011;5065;46.942;7.432;2022-12-18T01:49:57;34.53;;;18.87;;
10050;SDS011;5065;46.942;7.432;2022-12-18T01:52:26;35.87;;;19.40;;
10050;SDS011;5065;46.942;7.432;2022-12-18T01:54:56;34.67;;;19.93;;
10050;SDS011;5065;46.942;7.432;2022-12-18T01:57:24;39.53;;;20.23;;
10050;SDS011;5065;46.942;7.432;2022-12-18T01:59:53;36.43;;;19.50;;
10050;SDS011;5065;46.942;7.432;2022-12-18T02:02:27;34.80;;;20.03;;
10050;SDS011;5065;46.942;7.432;2022-12-18T02:04:54;34.97;;;20.37;;
10050;SDS011;5065;46.942;7.432;2022-12-18T02:07:23;37.30;;;20.47;;
10050;SDS011;5065;46.942;7.432;2022-12-18T02:10:01;38.60;;;21.13;;
10050;SDS011;5065;46.942;7.432;2022-12-18T02:12:33;36.10;;;21.23;;
10050;SDS011;5065;46.942;7.432;2022-12-18T02:15:07;35.20;;;20.70;;
10050;SDS011;5065;46.942;7.432;2022-12-18T02:17:40;32.40;;;18.33;;
10050;SDS011;5065;46.942;7.432;2022-12-18T02:20:12;37.53;;;20.53;;
10050;SDS011;5065;46.942;7.432;2022-12-18T02:22:45;34.73;;;20.20;;
10050;SDS011;5065;46.942;7.432;2022-12-18T02:25:32;35.90;;;20.70;;
10050;SDS011;5065;46.942;7.432;2022-12-18T02:28:31;36.17;;;20.90;;
10050;SDS011;5065;46.942;7.432;2022-12-18T02:31:01;39.17;;;19.37;;
10050;SDS011;5065;46.942;7.432;2022-12-18T02:33:32;35.83;;;20.23;;
10050;SDS011;5065;46.942;7.432;2022-12-18T02:38:43;34.27;;;18.67;;
10050;SDS011;5065;46.942;7.432;2022-12-18T02:41:12;34.83;;;19.10;;
10050;SDS011;5065;46.942;7.432;2022-12-18T02:43:42;35.83;;;19.97;;
10050;SDS011;5065;46.942;7.432;2022-12-18T02:46:23;31.77;;;18.43;;
10050;SDS011;5065;46.942;7.432;2022-12-18T02:48:54;37.13;;;19.63;;
10050;SDS011;5065;46.942;7.432;2022-12-18T02:51:29;34.10;;;18.10;;
10050;SDS011;5065;46.942;7.432;2022-12-18T02:54:00;36.47;;;18.97;;
10050;SDS011;5065;46.942;7.432;2022-12-18T02:56:34;38.17;;;20.03;;
10050;SDS011;5065;46.942;7.432;2022-12-18T02:59:07;34.57;;;20.00;;
10050;SDS011;5065;46.942;7.432;2022-12-18T03:01:41;36.60;;;19.80;;
10050;SDS011;5065;46.942;7.432;2022-12-18T03:04:14;35.53;;;20.07;;
10050;SDS011;5065;46.942;7.432;2022-12-18T03:06:47;34.13;;;19.10;;
10050;SDS011;5065;46.942;7.432;2022-12-18T03:09:17;34.70;;;18.30;;
10050;SDS011;5065;46.942;7.432;2022-12-18T03:11:50;36.20;;;18.27;;
10050;SDS011;5065;46.942;7.432;2022-12-18T03:14:40;31.40;;;17.37;;
10050;SDS011;5065;46.942;7.432;2022-12-18T03:17:10;33.67;;;18.83;;
10050;SDS011;5065;46.942;7.432;2022-12-18T03:19:43;30.53;;;18.00;;
10050;SDS011;5065;46.942;7.432;2022-12-18T03:22:13;32.10;;;18.27;;
10050;SDS011;5065;46.942;7.432;2022-12-18T03:24:43;31.53;;;17.40;;
10050;SDS011;5065;46.942;7.432;2022-12-18T03:27:12;35.27;;;19.07;;
10050;SDS011;5065;46.942;7.432;2022-12-18T03:29:45;30.90;;;17.30;;
10050;SDS011;5065;46.942;7.432;2022-12-18T03:32:16;34.13;;;19.27;;
10050;SDS011;5065;46.942;7.432;2022-12-18T03:34:47;34.47;;;19.90;;
10050;SDS011;5065;46.942;7.432;2022-12-18T03:37:16;30.07;;;17.80;;
10050;SDS011;5065;46.942;7.432;2022-12-18T03:39:44;31.77;;;18.20;;
10050;SDS011;5065;46.942;7.432;2022-12-18T03:42:12;30.43;;;17.73;;
10050;SDS011;5065;46.942;7.432;2022-12-18T03:44:50;30.73;;;16.70;;
10050;SDS011;5065;46.942;7.432;2022-12-18T03:47:22;34.23;;;17.77;;
10050;SDS011;5065;46.942;7.432;2022-12-18T03:49:55;30.77;;;17.27;;
10050;SDS011;5065;46.942;7.432;2022-12-18T03:52:30;31.37;;;16.63;;
10050;SDS011;5065;46.942;7.432;2022-12-18T03:55:02;28.47;;;15.40;;
10050;SDS011;5065;46.942;7.432;2022-12-18T03:57:31;32.83;;;16.93;;
10050;SDS011;5065;46.942;7.432;2022-12-18T04:00:02;33.37;;;16.67;;
10050;SDS011;5065;46.942;7.432;2022-12-18T04:02:33;28.70;;;15.70;;
10050;SDS011;5065;46.942;7.432;2022-12-18T04:05:03;31.37;;;15.83;;
10050;SDS011;5065;46.942;7.432;2022-12-18T04:07:33;31.03;;;15.17;;
10050;SDS011;5065;46.942;7.432;2022-12-18T04:10:01;26.50;;;16.03;;
10050;SDS011;5065;46.942;7.432;2022-12-18T04:12:30;29.50;;;17.23;;
10050;SDS011;5065;46.942;7.432;2022-12-18T04:14:57;26.13;;;15.17;;
10050;SDS011;5065;46.942;7.432;2022-12-18T04:17:25;28.60;;;15.43;;
10050;SDS011;5065;46.942;7.432;2022-12-18T04:19:53;24.33;;;13.73;;
10050;SDS011;5065;46.942;7.432;2022-12-18T04:22:22;26.50;;;14.60;;
10050;SDS011;5065;46.942;7.432;2022-12-18T04:24:49;23.03;;;13.77;;
10050;SDS011;5065;46.942;7.432;2022-12-18T04:27:16;26.23;;;14.43;;
10050;SDS011;5065;46.942;7.432;2022-12-18T04:29:43;22.50;;;13.63;;
10050;SDS011;5065;46.942;7.432;2022-12-18T04:32:11;25.67;;;14.17;;
10050;SDS011;5065;46.942;7.432;2022-12-18T04:34:39;23.10;;;13.47;;
10050;SDS011;5065;46.942;7.432;2022-12-18T04:37:06;22.83;;;13.80;;
10050;SDS011;5065;46.942;7.432;2022-12-18T04:39:34;24.40;;;14.03;;
10050;SDS011;5065;46.942;7.432;2022-12-18T04:42:02;26.70;;;14.23;;
10050;SDS011;5065;46.942;7.432;2022-12-18T04:44:29;27.47;;;13.27;;
10050;SDS011;5065;46.942;7.432;2022-12-18T04:46:56;26.07;;;14.17;;
10050;SDS011;5065;46.942;7.432;2022-12-18T04:49:24;21.93;;;12.00;;
10050;SDS011;5065;46.942;7.432;2022-12-18T04:51:52;24.07;;;13.53;;
10050;SDS011;5065;46.942;7.432;2022-12-18T04:54:19;24.17;;;13.10;;
10050;SDS011;5065;46.942;7.432;2022-12-18T04:56:46;21.23;;;12.27;;
10050;SDS011;5065;46.942;7.432;2022-12-18T04:59:14;19.10;;;11.17;;
10050;SDS011;5065;46.942;7.432;2022-12-18T05:01:42;22.43;;;11.87;;
10050;SDS011;5065;46.942;7.432;2022-12-18T05:04:09;22.13;;;12.10;;
10050;SDS011;5065;46.942;7.432;2022-12-18T05:06:36;23.43;;;12.63;;
10050;SDS011;5065;46.942;7.432;2022-12-18T05:09:05;21.43;;;12.20;;
10050;SDS011;5065;46.942;7.432;2022-12-18T05:11:32;23.27;;;12.30;;
10050;SDS011;5065;46.942;7.432;2022-12-18T05:14:01;21.03;;;11.70;;
10050;SDS011;5065;46.942;7.432;2022-12-18T05:16:29;23.53;;;13.63;;
10050;SDS011;5065;46.942;7.432;2022-12-18T05:18:56;25.30;;;13.43;;
10050;SDS011;5065;46.942;7.432;2022-12-18T05:21:24;19.27;;;12.27;;
10050;SDS011;5065;46.942;7.432;2022-12-18T05:23:51;22.07;;;13.13;;
10050;SDS011;5065;46.942;7.432;2022-12-18T05:26:20;20.00;;;12.93;;
10050;SDS011;5065;46.942;7.432;2022-12-18T05:28:47;21.73;;;13.40;;
10050;SDS011;5065;46.942;7.432;2022-12-18T05:31:14;21.47;;;11.57;;
10050;SDS011;5065;46.942;7.432;2022-12-18T05:33:41;21.77;;;12.07;;
10050;SDS011;5065;46.942;7.432;2022-12-18T05:36:09;19.67;;;11.80;;
10050;SDS011;5065;46.942;7.432;2022-12-18T05:38:37;22.27;;;12.83;;
10050;SDS011;5065;46.942;7.432;2022-12-18T05:41:05;22.07;;;12.93;;
10050;SDS011;5065;46.942;7.432;2022-12-18T05:43:34;20.77;;;11.23;;
10050;SDS011;5065;46.942;7.432;2022-12-18T05:46:05;21.53;;;12.37;;
10050;SDS011;5065;46.942;7.432;2022-12-18T05:48:33;21.50;;;11.20;;
10050;SDS011;5065;46.942;7.432;2022-12-18T05:51:05;20.37;;;11.57;;
10050;SDS011;5065;46.942;7.432;2022-12-18T05:53:33;24.23;;;11.90;;
10050;SDS011;5065;46.942;7.432;2022-12-18T05:56:01;22.83;;;12.07;;
10050;SDS011;5065;46.942;7.432;2022-12-18T05:58:29;20.83;;;12.80;;
10050;SDS011;5065;46.942;7.432;2022-12-18T06:01:05;22.23;;;12.23;;
10050;SDS011;5065;46.942;7.432;2022-12-18T06:03:35;20.37;;;11.27;;
10050;SDS011;5065;46.942;7.432;2022-12-18T06:06:02;20.83;;;12.53;;
10050;SDS011;5065;46.942;7.432;2022-12-18T06:08:30;20.00;;;12.50;;
10050;SDS011;5065;46.942;7.432;2022-12-18T06:10:57;24.10;;;12.47;;
10050;SDS011;5065;46.942;7.432;2022-12-18T06:13:25;19.97;;;11.90;;
10050;SDS011;5065;46.942;7.432;2022-12-18T06:15:53;19.33;;;11.47;;
10050;SDS011;5065;46.942;7.432;2022-12-18T06:18:21;19.20;;;11.90;;
10050;SDS011;5065;46.942;7.432;2022-12-18T06:20:54;21.90;;;12.30;;
10050;SDS011;5065;46.942;7.432;2022-12-18T06:23:23;18.97;;;11.37;;
10050;SDS011;5065;46.942;7.432;2022-12-18T06:25:50;24.17;;;11.83;;
10050;SDS011;5065;46.942;7.432;2022-12-18T06:28:18;20.57;;;12.57;;
10050;SDS011;5065;46.942;7.432;2022-12-18T06:30:45;23.10;;;12.07;;
10050;SDS011;5065;46.942;7.432;2022-12-18T06:33:13;22.53;;;12.13;;
10050;SDS011;5065;46.942;7.432;2022-12-18T06:35:42;20.93;;;11.37;;
10050;SDS011;5065;46.942;7.432;2022-12-18T06:38:09;22.87;;;12.10;;
10050;SDS011;5065;46.942;7.432;2022-12-18T06:40:37;18.93;;;10.93;;
10050;SDS011;5065;46.942;7.432;2022-12-18T06:43:04;18.90;;;11.23;;
10050;SDS011;5065;46.942;7.432;2022-12-18T06:45:32;22.07;;;13.37;;
10050;SDS011;5065;46.942;7.432;2022-12-18T06:48:00;22.73;;;13.03;;
10050;SDS011;5065;46.942;7.432;2022-12-18T06:50:27;21.50;;;12.70;;
10050;SDS011;5065;46.942;7.432;2022-12-18T06:52:56;20.57;;;12.17;;
10050;SDS011;5065;46.942;7.432;2022-12-18T06:55:23;21.07;;;12.57;;
10050;SDS011;5065;46.942;7.432;2022-12-18T06:57:50;20.83;;;12.23;;
10050;SDS011;5065;46.942;7.432;2022-12-18T07:00:17;18.43;;;11.30;;
10050;SDS011;5065;46.942;7.432;2022-12-18T07:02:45;23.87;;;12.67;;
10050;SDS011;5065;46.942;7.432;2022-12-18T07:05:12;20.97;;;12.00;;
10050;SDS011;5065;46.942;7.432;2022-12-18T07:07:39;21.27;;;12.73;;
10050;SDS011;5065;46.942;7.432;2022-12-18T07:10:08;20.43;;;12.77;;
10050;SDS011;5065;46.942;7.432;2022-12-18T07:12:36;18.57;;;11.30;;
10050;SDS011;5065;46.942;7.432;2022-12-18T07:15:03;18.50;;;11.87;;
10050;SDS011;5065;46.942;7.432;2022-12-18T07:17:31;21.07;;;12.20;;
10050;SDS011;5065;46.942;7.432;2022-12-18T07:19:58;23.00;;;12.77;;
10050;SDS011;5065;46.942;7.432;2022-12-18T07:22:26;22.63;;;13.93;;
10050;SDS011;5065;46.942;7.432;2022-12-18T07:24:53;23.40;;;13.37;;
10050;SDS011;5065;46.942;7.432;2022-12-18T07:27:22;23.90;;;14.70;;
10050;SDS011;5065;46.942;7.432;2022-12-18T07:29:49;22.50;;;13.30;;
10050;SDS011;5065;46.942;7.432;2022-12-18T07:32:16;23.23;;;13.27;;
10050;SDS011;5065;46.942;7.432;2022-12-18T07:34:43;26.07;;;13.47;;
10050;SDS011;5065;46.942;7.432;2022-12-18T07:37:11;25.17;;;14.67;;
10050;SDS011;5065;46.942;7.432;2022-12-18T07:39:38;23.63;;;15.17;;
10050;SDS011;5065;46.942;7.432;2022-12-18T07:42:05;23.77;;;13.60;;
10050;SDS011;5065;46.942;7.432;2022-12-18T07:44:51;24.47;;;13.97;;
10050;SDS011;5065;46.942;7.432;2022-12-18T07:47:18;22.63;;;13.10;;
10050;SDS011;5065;46.942;7.432;2022-12-18T07:49:45;22.13;;;13.70;;
10050;SDS011;5065;46.942;7.432;2022-12-18T07:52:13;25.10;;;14.03;;
10050;SDS011;5065;46.942;7.432;2022-12-18T07:54:40;23.90;;;13.63;;
10050;SDS011;5065;46.942;7.432;2022-12-18T07:57:07;23.53;;;13.13;;
10050;SDS011;5065;46.942;7.432;2022-12-18T07:59:35;25.87;;;13.60;;
10050;SDS011;5065;46.942;7.432;2022-12-18T08:02:03;22.20;;;13.87;;
10050;SDS011;5065;46.942;7.432;2022-12-18T08:04:31;26.50;;;15.47;;
10050;SDS011;5065;46.942;7.432;2022-12-18T08:07:00;30.23;;;17.27;;
10050;SDS011;5065;46.942;7.432;2022-12-18T08:09:27;35.93;;;21.63;;
10050;SDS011;5065;46.942;7.432;2022-12-18T08:11:55;25.37;;;15.73;;
10050;SDS011;5065;46.942;7.432;2022-12-18T08:14:22;25.40;;;14.43;;
10050;SDS011;5065;46.942;7.432;2022-12-18T08:16:49;33.23;;;19.17;;
10050;SDS011;5065;46.942;7.432;2022-12-18T08:19:18;23.20;;;14.23;;
10050;SDS011;5065;46.942;7.432;2022-12-18T08:21:46;25.17;;;15.33;;
10050;SDS011;5065;46.942;7.432;2022-12-18T08:24:13;28.53;;;13.43;;
10050;SDS011;5065;46.942;7.432;2022-12-18T08:26:40;23.77;;;14.73;;
10050;SDS011;5065;46.942;7.432;2022-12-18T08:29:09;25.83;;;15.37;;
10050;SDS011;5065;46.942;7.432;2022-12-18T08:31:36;32.00;;;16.67;;
10050;SDS011;5065;46.942;7.432;2022-12-18T08:34:04;25.00;;;14.30;;
10050;SDS011;5065;46.942;7.432;2022-12-18T08:36:33;24.60;;;14.37;;
10050;SDS011;5065;46.942;7.432;2022-12-18T08:39:00;29.50;;;14.63;;
10050;SDS011;5065;46.942;7.432;2022-12-18T08:41:28;24.47;;;13.53;;
10050;SDS011;5065;46.942;7.432;2022-12-18T08:43:55;21.80;;;13.00;;
10050;SDS011;5065;46.942;7.432;2022-12-18T08:46:45;21.30;;;12.63;;
10050;SDS011;5065;46.942;7.432;2022-12-18T08:49:12;25.03;;;14.63;;
10050;SDS011;5065;46.942;7.432;2022-12-18T08:51:41;22.27;;;13.83;;
10050;SDS011;5065;46.942;7.432;2022-12-18T08:54:09;24.77;;;13.20;;
10050;SDS011;5065;46.942;7.432;2022-12-18T08:56:37;23.70;;;13.37;;
10050;SDS011;5065;46.942;7.432;2022-12-18T08:59:05;20.77;;;12.67;;
10050;SDS011;5065;46.942;7.432;2022-12-18T09:01:32;21.27;;;11.90;;
10050;SDS011;5065;46.942;7.432;2022-12-18T09:03:59;18.93;;;11.37;;
10050;SDS011;5065;46.942;7.432;2022-12-18T09:06:26;20.63;;;11.77;;
10050;SDS011;5065;46.942;7.432;2022-12-18T09:08:55;19.13;;;11.37;;
10050;SDS011;5065;46.942;7.432;2022-12-18T09:11:23;17.63;;;10.73;;
10050;SDS011;5065;46.942;7.432;2022-12-18T09:13:52;18.63;;;10.90;;
10050;SDS011;5065;46.942;7.432;2022-12-18T09:16:21;17.17;;;10.80;;
10050;SDS011;5065;46.942;7.432;2022-12-18T09:18:48;71.30;;;41.13;;
10050;SDS011;5065;46.942;7.432;2022-12-18T09:21:16;30.27;;;17.70;;
10050;SDS011;5065;46.942;7.432;2022-12-18T09:23:48;32.47;;;20.00;;
10050;SDS011;5065;46.942;7.432;2022-12-18T09:26:18;18.97;;;12.23;;
10050;SDS011;5065;46.942;7.432;2022-12-18T09:28:46;21.10;;;12.90;;
10050;SDS011;5065;46.942;7.432;2022-12-18T09:31:13;24.63;;;14.90;;
10050;SDS011;5065;46.942;7.432;2022-12-18T09:33:40;22.30;;;13.83;;
10050;SDS011;5065;46.942;7.432;2022-12-18T09:36:09;24.23;;;12.67;;
10050;SDS011;5065;46.942;7.432;2022-12-18T09:38:38;28.87;;;14.73;;
10050;SDS011;5065;46.942;7.432;2022-12-18T09:41:06;25.87;;;15.73;;
10050;SDS011;5065;46.942;7.432;2022-12-18T09:43:50;24.13;;;13.80;;
10050;SDS011;5065;46.942;7.432;2022-12-18T09:46:22;19.50;;;11.90;;
10050;SDS011;5065;46.942;7.432;2022-12-18T09:48:54;21.90;;;13.10;;
10050;SDS011;5065;46.942;7.432;2022-12-18T09:51:27;21.97;;;13.07;;
10050;SDS011;5065;46.942;7.432;2022-12-18T09:54:00;23.43;;;12.70;;
10050;SDS011;5065;46.942;7.432;2022-12-18T09:56:35;21.40;;;12.60;;
10050;SDS011;5065;46.942;7.432;2022-12-18T09:59:09;22.10;;;13.37;;
10050;SDS011;5065;46.942;7.432;2022-12-18T10:01:45;24.50;;;13.57;;
10050;SDS011;5065;46.942;7.432;2022-12-18T10:04:12;23.80;;;12.57;;
10050;SDS011;5065;46.942;7.432;2022-12-18T10:06:42;22.03;;;14.23;;
10050;SDS011;5065;46.942;7.432;2022-12-18T10:09:15;22.60;;;12.90;;
10050;SDS011;5065;46.942;7.432;2022-12-18T10:11:54;24.20;;;13.87;;
10050;SDS011;5065;46.942;7.432;2022-12-18T10:14:30;24.13;;;12.77;;
10050;SDS011;5065;46.942;7.432;2022-12-18T10:17:04;23.37;;;13.40;;
10050;SDS011;5065;46.942;7.432;2022-12-18T10:19:42;19.60;;;12.57;;
10050;SDS011;5065;46.942;7.432;2022-12-18T10:22:18;23.60;;;14.37;;
10050;SDS011;5065;46.942;7.432;2022-12-18T10:25:05;20.73;;;13.17;;
10050;SDS011;5065;46.942;7.432;2022-12-18T10:27:42;26.87;;;14.10;;
10050;SDS011;5065;46.942;7.432;2022-12-18T10:30:12;23.00;;;13.87;;
10050;SDS011;5065;46.942;7.432;2022-12-18T10:32:40;23.47;;;14.17;;
10050;SDS011;5065;46.942;7.432;2022-12-18T10:35:11;23.43;;;14.13;;
10050;SDS011;5065;46.942;7.432;2022-12-18T10:40:27;23.70;;;14.67;;
10050;SDS011;5065;46.942;7.432;2022-12-18T10:45:42;25.80;;;14.90;;
10050;SDS011;5065;46.942;7.432;2022-12-18T10:48:23;26.77;;;14.13;;
10050;SDS011;5065;46.942;7.432;2022-12-18T10:50:51;56.07;;;31.03;;
10050;SDS011;5065;46.942;7.432;2022-12-18T10:53:19;40.87;;;24.50;;
10050;SDS011;5065;46.942;7.432;2022-12-18T10:55:49;24.93;;;14.87;;
10050;SDS011;5065;46.942;7.432;2022-12-18T10:58:23;26.57;;;15.00;;
10050;SDS011;5065;46.942;7.432;2022-12-18T11:01:04;27.63;;;15.40;;
10050;SDS011;5065;46.942;7.432;2022-12-18T11:03:36;24.50;;;14.43;;
10050;SDS011;5065;46.942;7.432;2022-12-18T11:06:06;22.70;;;13.80;;
10050;SDS011;5065;46.942;7.432;2022-12-18T11:08:36;25.63;;;14.13;;
10050;SDS011;5065;46.942;7.432;2022-12-18T11:11:06;22.03;;;14.30;;
10050;SDS011;5065;46.942;7.432;2022-12-18T11:13:42;25.60;;;14.00;;
10050;SDS011;5065;46.942;7.432;2022-12-18T11:16:25;21.03;;;14.03;;
10050;SDS011;5065;46.942;7.432;2022-12-18T11:18:54;24.73;;;14.47;;
10050;SDS011;5065;46.942;7.432;2022-12-18T11:21:38;24.93;;;13.73;;
10050;SDS011;5065;46.942;7.432;2022-12-18T11:24:13;26.30;;;15.77;;
10050;SDS011;5065;46.942;7.432;2022-12-18T11:26:45;22.93;;;13.50;;
10050;SDS011;5065;46.942;7.432;2022-12-18T11:29:17;24.27;;;13.87;;
10050;SDS011;5065;46.942;7.432;2022-12-18T11:31:48;24.47;;;14.20;;
10050;SDS011;5065;46.942;7.432;2022-12-18T11:34:16;22.80;;;14.23;;
10050;SDS011;5065;46.942;7.432;2022-12-18T11:36:49;20.87;;;13.33;;
10050;SDS011;5065;46.942;7.432;2022-12-18T11:39:17;25.37;;;15.30;;
10050;SDS011;5065;46.942;7.432;2022-12-18T11:41:49;117.23;;;60.53;;
10050;SDS011;5065;46.942;7.432;2022-12-18T11:44:41;42.67;;;23.27;;
10050;SDS011;5065;46.942;7.432;2022-12-18T11:47:15;23.57;;;14.07;;
10050;SDS011;5065;46.942;7.432;2022-12-18T11:49:50;26.47;;;14.40;;
10050;SDS011;5065;46.942;7.432;2022-12-18T11:52:19;20.33;;;13.27;;
10050;SDS011;5065;46.942;7.432;2022-12-18T11:54:53;23.23;;;13.70;;
10050;SDS011;5065;46.942;7.432;2022-12-18T11:57:28;23.60;;;13.50;;
10050;SDS011;5065;46.942;7.432;2022-12-18T12:00:09;27.83;;;15.40;;
10050;SDS011;5065;46.942;7.432;2022-12-18T12:02:46;21.10;;;14.33;;
10050;SDS011;5065;46.942;7.432;2022-12-18T12:05:34;21.97;;;12.93;;
10050;SDS011;5065;46.942;7.432;2022-12-18T12:08:12;23.20;;;12.33;;
10050;SDS011;5065;46.942;7.432;2022-12-18T12:10:48;16.73;;;11.70;;
10050;SDS011;5065;46.942;7.432;2022-12-18T12:13:32;18.53;;;10.93;;
10050;SDS011;5065;46.942;7.432;2022-12-18T12:16:12;19.60;;;11.93;;
10050;SDS011;5065;46.942;7.432;2022-12-18T12:18:47;20.13;;;11.43;;
10050;SDS011;5065;46.942;7.432;2022-12-18T12:21:24;17.93;;;11.23;;
10050;SDS011;5065;46.942;7.432;2022-12-18T12:24:02;17.27;;;10.83;;
10050;SDS011;5065;46.942;7.432;2022-12-18T12:26:38;16.03;;;10.00;;
10050;SDS011;5065;46.942;7.432;2022-12-18T12:29:18;18.23;;;11.53;;
10050;SDS011;5065;46.942;7.432;2022-12-18T12:32:03;18.23;;;10.80;;
10050;SDS011;5065;46.942;7.432;2022-12-18T12:34:39;17.23;;;10.50;;
10050;SDS011;5065;46.942;7.432;2022-12-18T12:37:18;17.50;;;11.07;;
10050;SDS011;5065;46.942;7.432;2022-12-18T12:39:52;17.33;;;11.27;;
10050;SDS011;5065;46.942;7.432;2022-12-18T12:42:23;19.13;;;11.07;;
10050;SDS011;5065;46.942;7.432;2022-12-18T12:45:14;18.03;;;10.73;;
10050;SDS011;5065;46.942;7.432;2022-12-18T12:47:48;17.53;;;10.37;;
10050;SDS011;5065;46.942;7.432;2022-12-18T12:50:17;25.40;;;11.00;;
10050;SDS011;5065;46.942;7.432;2022-12-18T12:52:47;15.17;;;10.77;;
10050;SDS011;5065;46.942;7.432;2022-12-18T12:55:18;16.70;;;10.37;;
10050;SDS011;5065;46.942;7.432;2022-12-18T12:57:54;17.33;;;10.43;;
10050;SDS011;5065;46.942;7.432;2022-12-18T13:00:25;21.63;;;11.80;;
10050;SDS011;5065;46.942;7.432;2022-12-18T13:03:01;19.50;;;11.60;;
10050;SDS011;5065;46.942;7.432;2022-12-18T13:05:38;17.43;;;10.63;;
10050;SDS011;5065;46.942;7.432;2022-12-18T13:08:11;16.07;;;10.13;;
10050;SDS011;5065;46.942;7.432;2022-12-18T13:10:48;15.43;;;9.87;;
10050;SDS011;5065;46.942;7.432;2022-12-18T13:13:39;13.07;;;8.97;;
10050;SDS011;5065;46.942;7.432;2022-12-18T13:16:14;15.57;;;9.67;;
10050;SDS011;5065;46.942;7.432;2022-12-18T13:18:51;15.97;;;9.13;;
10050;SDS011;5065;46.942;7.432;2022-12-18T13:21:23;17.93;;;8.23;;
10050;SDS011;5065;46.942;7.432;2022-12-18T13:23:53;11.83;;;7.90;;
10050;SDS011;5065;46.942;7.432;2022-12-18T13:26:29;13.67;;;8.47;;
10050;SDS011;5065;46.942;7.432;2022-12-18T13:29:01;13.07;;;8.97;;
10050;SDS011;5065;46.942;7.432;2022-12-18T13:34:36;13.37;;;8.63;;
10050;SDS011;5065;46.942;7.432;2022-12-18T13:43:35;19.13;;;9.50;;
10050;SDS011;5065;46.942;7.432;2022-12-18T13:46:18;14.23;;;8.17;;
10050;SDS011;5065;46.942;7.432;2022-12-18T13:51:33;14.83;;;8.93;;
10050;SDS011;5065;46.942;7.432;2022-12-18T13:54:02;12.37;;;7.33;;
10050;SDS011;5065;46.942;7.432;2022-12-18T13:56:42;11.00;;;7.63;;
10050;SDS011;5065;46.942;7.432;2022-12-18T13:59:12;12.33;;;7.63;;
10050;SDS011;5065;46.942;7.432;2022-12-18T14:01:45;11.77;;;7.37;;
10050;SDS011;5065;46.942;7.432;2022-12-18T14:04:21;11.30;;;7.90;;
10050;SDS011;5065;46.942;7.432;2022-12-18T14:06:53;11.90;;;7.57;;
10050;SDS011;5065;46.942;7.432;2022-12-18T14:09:24;12.27;;;7.10;;
10050;SDS011;5065;46.942;7.432;2022-12-18T14:11:54;9.37;;;6.70;;
10050;SDS011;5065;46.942;7.432;2022-12-18T14:14:37;8.90;;;6.30;;
10050;SDS011;5065;46.942;7.432;2022-12-18T14:17:11;10.93;;;7.40;;
10050;SDS011;5065;46.942;7.432;2022-12-18T14:19:41;10.93;;;6.53;;
10050;SDS011;5065;46.942;7.432;2022-12-18T14:22:16;12.97;;;7.90;;
10050;SDS011;5065;46.942;7.432;2022-12-18T14:24:44;13.80;;;7.47;;
10050;SDS011;5065;46.942;7.432;2022-12-18T14:27:13;10.97;;;7.47;;
10050;SDS011;5065;46.942;7.432;2022-12-18T14:29:48;10.53;;;7.47;;
10050;SDS011;5065;46.942;7.432;2022-12-18T14:32:16;10.80;;;7.23;;
10050;SDS011;5065;46.942;7.432;2022-12-18T14:34:45;10.17;;;7.30;;
10050;SDS011;5065;46.942;7.432;2022-12-18T14:37:16;13.00;;;7.73;;
10050;SDS011;5065;46.942;7.432;2022-12-18T14:39:53;12.27;;;8.47;;
10050;SDS011;5065;46.942;7.432;2022-12-18T14:42:22;10.83;;;7.03;;
10050;SDS011;5065;46.942;7.432;2022-12-18T14:47:53;10.67;;;7.90;;
10050;SDS011;5065;46.942;7.432;2022-12-18T14:50:21;10.20;;;7.97;;
10050;SDS011;5065;46.942;7.432;2022-12-18T14:52:49;11.80;;;8.07;;
10050;SDS011;5065;46.942;7.432;2022-12-18T14:55:17;10.53;;;7.20;;
10050;SDS011;5065;46.942;7.432;2022-12-18T14:57:48;12.13;;;7.97;;
10050;SDS011;5065;46.942;7.432;2022-12-18T15:00:18;11.27;;;7.50;;
10050;SDS011;5065;46.942;7.432;2022-12-18T15:02:48;10.10;;;7.00;;
10050;SDS011;5065;46.942;7.432;2022-12-18T15:05:19;8.93;;;6.70;;
10050;SDS011;5065;46.942;7.432;2022-12-18T15:07:54;12.33;;;8.03;;
10050;SDS011;5065;46.942;7.432;2022-12-18T15:10:27;14.30;;;8.60;;
10050;SDS011;5065;46.942;7.432;2022-12-18T15:13:07;10.37;;;7.87;;
10050;SDS011;5065;46.942;7.432;2022-12-18T15:15:46;12.83;;;8.13;;
10050;SDS011;5065;46.942;7.432;2022-12-18T15:18:15;10.73;;;7.27;;
10050;SDS011;5065;46.942;7.432;2022-12-18T15:20:45;12.67;;;8.47;;